Flight Track Log - Related Links

Times and Time Zones

All times are in EDT time to prevent confusion due to time zone crossing. See the UPS1131 flight status page for this flight to view local times or setup timezone preferences in your user account.


Time Position Orientation Groundspeed Altitude Reporting Facility
EDT Latitude Longitude Course Direction KTS MPH feet Rate Location/Type
Sat 12:28:39 AM 37.2553 -80.1244 250° West 270 311 6,600  Level Washington Center
Sat 12:29:39 AM 37.2917 -80.2075 299° West 265 305 10,300 3,264 Climbing Washington Center
Sat 12:31:41 AM 37.3989 -80.4222 302° West 359 413 16,500 2,984 Climbing Indianapolis Center
Sat 12:32:42 AM 37.4492 -80.5317 300° West 366 421 19,400 2,826 Climbing Indianapolis Center
Sat 12:33:00 AM 37.4275 -80.5727 282° West  Level Estimated
Sat 12:33:42 AM 37.4681 -80.6619 280° West 397 457 22,200  Level Indianapolis Center
Sat 12:34:43 AM 37.4519 -80.8019 262° West 415 478 24,800 2,529 Climbing Indianapolis Center
Sat 12:35:43 AM 37.4522 -80.9478 270° West 433 498 27,300 2,529 Climbing Indianapolis Center
Sat 12:36:44 AM 37.4625 -81.0900 275° West 423 487 29,900 1,339 Climbing Indianapolis Center
Sat 12:37:44 AM 37.4731 -81.2581 275° West 415 478 30,000 50 Climbing Indianapolis Center
Sat 12:38:45 AM 37.4811 -81.3994 274° West 415 478 30,000  Level Indianapolis Center
Sat 12:39:45 AM 37.4911 -81.5444 275° West 417 480 30,000  Level Indianapolis Center
Sat 12:40:45 AM 37.5011 -81.6892 275° West 416 479 30,000  Level Indianapolis Center
Sat 12:41:46 AM 37.5097 -81.8339 274° West 415 478 30,000  Level Indianapolis Center
Sat 12:42:46 AM 37.5178 -81.9792 274° West 416 479 30,000  Level Indianapolis Center
Sat 12:43:47 AM 37.5272 -82.1247 275° West 417 480 30,000  Level Indianapolis Center
Sat 12:44:47 AM 37.5353 -82.2694 274° West 416 479 30,000  Level Indianapolis Center
Sat 12:45:47 AM 37.5436 -82.4150 274° West 417 480 30,000  Level Indianapolis Center
Sat 12:46:48 AM 37.5508 -82.5586 274° West 414 476 30,000  Level Indianapolis Center
Sat 12:47:48 AM 37.5586 -82.7033 274° West 414 476 30,000  Level Indianapolis Center
Sat 12:48:49 AM 37.5667 -82.8483 274° West 416 479 30,000  Level Indianapolis Center
Sat 12:49:49 AM 37.5733 -82.9944 273° West 418 481 30,000  Level Indianapolis Center
Sat 12:50:49 AM 37.5814 -83.1389 274° West 417 480 30,000  Level Indianapolis Center
Sat 12:51:50 AM 37.5869 -83.2831 273° West 414 476 30,000  Level Indianapolis Center
Sat 12:52:50 AM 37.5944 -83.4272 274° West 413 475 30,000  Level Indianapolis Center
Sat 12:53:50 AM 37.6006 -83.5717 273° West 413 475 30,000 -347 Level Indianapolis Center
Sat 12:54:51 AM 37.6072 -83.7169 273° West 414 476 29,300 -1,884 Descending Indianapolis Center
Sat 12:55:51 AM 37.6122 -83.8614 273° West 414 476 26,200 -3,100 Descending Indianapolis Center
Sat 12:56:51 AM 37.6194 -84.0347 273° West 423 487 23,100 -2,777 Descending Indianapolis Center
Sat 12:57:52 AM 37.6244 -84.1772 273° West 412 474 20,600 -2,380 Descending Indianapolis Center
Sat 12:58:52 AM 37.6300 -84.3167 273° West 402 463 18,300 -2,300 Descending Indianapolis Center
Sat 12:59:52 AM 37.6350 -84.4517 273° West 388 447 16,000 -2,281 Descending Indianapolis Center
Sat 01:00:53 AM 37.6411 -84.5844 273° West 382 440 13,700 -2,083 Descending Indianapolis Center
Sat 01:01:53 AM 37.6453 -84.7133 272° West 370 426 11,800 -1,450 Descending Indianapolis Center
Sat 01:02:53 AM 37.6506 -84.8389 273° West 362 417 10,800 -900 Descending Indianapolis Center
Sat 01:03:53 AM 37.6581 -84.9617 274° West 353 406 10,000 -397 Descending Indianapolis Center
Sat 01:04:54 AM 37.7200 -85.0431 314° West 315 362 10,000 -149 Level Indianapolis Center
Sat 01:05:54 AM 37.7708 -85.1178 311° West 285 328 9,700 -900 Descending Indianapolis Center
Sat 01:06:54 AM 37.7947 -85.2122 288° West 282 325 8,200 -1,537 Descending Indianapolis Center
Sat 01:07:55 AM 37.8186 -85.3050 288° West 281 323 6,600 -1,537 Descending Indianapolis Center
Sat 01:08:55 AM 37.8411 -85.3958 287° West 281 323 5,100 -1,300 Descending Indianapolis Center
Sat 01:09:55 AM 37.8681 -85.4869 291° West 278 320 4,000 -550 Descending Indianapolis Center
Sat 01:10:55 AM 37.9047 -85.5725 299° West 276 318 4,000  Level Indianapolis Center
Sat 01:11:56 AM 37.9406 -85.6594 298° West 278 320 4,000 -248 Level Indianapolis Center
Sat 01:12:56 AM 38.0031 -85.6872 341° North 245 282 3,500 -700 Descending Indianapolis Center
Sat 01:13:56 AM 38.0569 -85.7058 345° North 221 254 2,600 -850 Descending Indianapolis Center
Sat 01:14:56 AM 38.0967 -85.7175 347° North 189 217 1,800 -595 Descending Indianapolis Center
Sat 01:15:57 AM 38.1256 -85.7261 347° North 164 189 1,400 -393 Descending Indianapolis Center
Sat 01:17:00 AM 38.1741 -85.7365 345° North  Level Estimated

Login

Don't have an account? Register now (free) for customized features, flight alerts, and more!